SLRI/RIB METAR and TAF weather

Enter ICAO airport designator
Station Type Date Time Source
SLRI METAR 2020/02/19 14:00 UTC NOAA

SLRI 191400Z 00000KT 9999 FEW020 BKN200 30/26 Q1012


Station Type Date Time Source
SLRI Decoded METAR 2020/02/19 14:00 UTC NOAA

Riberalta, Bolivia (SLRI) 11-00S 066-07W
Feb 19, 2020 - 09:00 AM EST / 2020.02.19 1400 UTC
Wind: Calm:0
Visibility: greater than 7 mile(s):0
Sky conditions: mostly cloudy
Temperature: 86 F (30 C)
Heat index: 99.3 F (37.4 C):1
Dew Point: 78 F (26 C)
Relative Humidity: 79%
Pressure (altimeter): 29.88 in. Hg (1012 hPa)
ob: SLRI 191400Z 00000KT 9999 FEW020 BKN200 30/26 Q1012
cycle: 14

Station Type Date Time Source
SLRI TAF 2015/11/18 00:29 UTC NOAA

TAF SLRI 182200Z 1900/1924 00000KT 9999 FEW015 TX37/1919Z TN23/1910Z
BECMG 1912/1914 33011KT SCT020
TEMPO 1919/1922 8000 VCSH FEW020 FEW023CB BKN080

Example: see airport list